sensor_id;sensor_type;location;lat;lon;timestamp;P1;durP1;ratioP1;P2;durP2;ratioP2
41077;SDS011;26823;42.662;23.352;2023-09-12T00:01:31;5.60;;;2.60;;
41077;SDS011;26823;42.662;23.352;2023-09-12T00:03:57;2.95;;;2.00;;
41077;SDS011;26823;42.662;23.352;2023-09-12T00:06:23;4.88;;;2.40;;
41077;SDS011;26823;42.662;23.352;2023-09-12T00:08:49;2.53;;;2.05;;
41077;SDS011;26823;42.662;23.352;2023-09-12T00:11:14;4.45;;;2.10;;
41077;SDS011;26823;42.662;23.352;2023-09-12T00:13:40;2.80;;;2.22;;
41077;SDS011;26823;42.662;23.352;2023-09-12T00:16:06;4.95;;;2.75;;
41077;SDS011;26823;42.662;23.352;2023-09-12T00:18:35;5.75;;;2.42;;
41077;SDS011;26823;42.662;23.352;2023-09-12T00:21:00;6.40;;;2.47;;
41077;SDS011;26823;42.662;23.352;2023-09-12T00:23:26;6.20;;;2.40;;
41077;SDS011;26823;42.662;23.352;2023-09-12T00:25:51;6.53;;;2.40;;
41077;SDS011;26823;42.662;23.352;2023-09-12T00:28:17;4.63;;;2.78;;
41077;SDS011;26823;42.662;23.352;2023-09-12T00:30:43;6.50;;;2.67;;
41077;SDS011;26823;42.662;23.352;2023-09-12T00:33:08;5.97;;;2.33;;
41077;SDS011;26823;42.662;23.352;2023-09-12T00:35:34;3.88;;;2.53;;
41077;SDS011;26823;42.662;23.352;2023-09-12T00:37:59;7.28;;;2.97;;
41077;SDS011;26823;42.662;23.352;2023-09-12T00:40:25;3.47;;;2.72;;
41077;SDS011;26823;42.662;23.352;2023-09-12T00:42:50;4.13;;;2.63;;
41077;SDS011;26823;42.662;23.352;2023-09-12T00:45:16;5.22;;;2.25;;
41077;SDS011;26823;42.662;23.352;2023-09-12T00:47:41;5.10;;;2.58;;
41077;SDS011;26823;42.662;23.352;2023-09-12T00:50:06;3.53;;;2.58;;
41077;SDS011;26823;42.662;23.352;2023-09-12T00:52:33;5.05;;;2.65;;
41077;SDS011;26823;42.662;23.352;2023-09-12T00:54:59;3.58;;;2.72;;
41077;SDS011;26823;42.662;23.352;2023-09-12T00:57:25;5.78;;;2.72;;
41077;SDS011;26823;42.662;23.352;2023-09-12T00:59:51;4.90;;;2.40;;
41077;SDS011;26823;42.662;23.352;2023-09-12T01:02:17;5.57;;;3.00;;
41077;SDS011;26823;42.662;23.352;2023-09-12T01:04:44;4.07;;;2.67;;
41077;SDS011;26823;42.662;23.352;2023-09-12T01:07:09;5.22;;;2.80;;
41077;SDS011;26823;42.662;23.352;2023-09-12T01:09:35;4.63;;;2.40;;
41077;SDS011;26823;42.662;23.352;2023-09-12T01:12:00;4.40;;;2.95;;
41077;SDS011;26823;42.662;23.352;2023-09-12T01:14:29;4.05;;;2.63;;
41077;SDS011;26823;42.662;23.352;2023-09-12T01:16:55;4.38;;;3.80;;
41077;SDS011;26823;42.662;23.352;2023-09-12T01:19:22;4.53;;;2.50;;
41077;SDS011;26823;42.662;23.352;2023-09-12T01:30:07;3.35;;;2.58;;
41077;SDS011;26823;42.662;23.352;2023-09-12T01:32:33;7.07;;;2.90;;
41077;SDS011;26823;42.662;23.352;2023-09-12T01:35:00;3.55;;;2.58;;
41077;SDS011;26823;42.662;23.352;2023-09-12T01:37:27;5.07;;;3.00;;
41077;SDS011;26823;42.662;23.352;2023-09-12T01:39:53;3.67;;;2.83;;
41077;SDS011;26823;42.662;23.352;2023-09-12T01:42:19;3.85;;;2.63;;
41077;SDS011;26823;42.662;23.352;2023-09-12T01:44:46;3.55;;;2.58;;
41077;SDS011;26823;42.662;23.352;2023-09-12T01:47:14;5.97;;;3.20;;
41077;SDS011;26823;42.662;23.352;2023-09-12T01:49:42;3.80;;;2.80;;
41077;SDS011;26823;42.662;23.352;2023-09-12T01:52:11;4.95;;;2.97;;
41077;SDS011;26823;42.662;23.352;2023-09-12T01:54:37;5.15;;;2.83;;
41077;SDS011;26823;42.662;23.352;2023-09-12T01:57:03;3.50;;;2.70;;
41077;SDS011;26823;42.662;23.352;2023-09-12T01:59:29;3.92;;;3.40;;
41077;SDS011;26823;42.662;23.352;2023-09-12T02:01:55;9.10;;;3.45;;
41077;SDS011;26823;42.662;23.352;2023-09-12T02:04:20;6.53;;;2.85;;
41077;SDS011;26823;42.662;23.352;2023-09-12T02:06:45;4.22;;;2.38;;
41077;SDS011;26823;42.662;23.352;2023-09-12T02:09:11;6.25;;;3.13;;
41077;SDS011;26823;42.662;23.352;2023-09-12T02:11:36;5.43;;;2.92;;
41077;SDS011;26823;42.662;23.352;2023-09-12T02:14:01;5.57;;;3.17;;
41077;SDS011;26823;42.662;23.352;2023-09-12T02:16:27;5.03;;;4.18;;
41077;SDS011;26823;42.662;23.352;2023-09-12T02:18:53;6.03;;;2.92;;
41077;SDS011;26823;42.662;23.352;2023-09-12T02:21:18;5.50;;;3.47;;
41077;SDS011;26823;42.662;23.352;2023-09-12T02:23:44;6.68;;;3.00;;
41077;SDS011;26823;42.662;23.352;2023-09-12T02:26:09;7.43;;;3.50;;
41077;SDS011;26823;42.662;23.352;2023-09-12T02:28:34;4.50;;;3.03;;
41077;SDS011;26823;42.662;23.352;2023-09-12T02:31:00;4.07;;;2.80;;
41077;SDS011;26823;42.662;23.352;2023-09-12T02:33:25;6.53;;;3.55;;
41077;SDS011;26823;42.662;23.352;2023-09-12T02:35:51;5.40;;;3.28;;
41077;SDS011;26823;42.662;23.352;2023-09-12T02:38:17;5.53;;;3.20;;
41077;SDS011;26823;42.662;23.352;2023-09-12T02:40:49;5.70;;;3.10;;
41077;SDS011;26823;42.662;23.352;2023-09-12T02:43:15;5.43;;;3.30;;
41077;SDS011;26823;42.662;23.352;2023-09-12T02:45:40;4.68;;;2.95;;
41077;SDS011;26823;42.662;23.352;2023-09-12T02:48:05;4.25;;;3.35;;
41077;SDS011;26823;42.662;23.352;2023-09-12T02:50:31;4.85;;;3.10;;
41077;SDS011;26823;42.662;23.352;2023-09-12T02:52:56;6.35;;;3.72;;
41077;SDS011;26823;42.662;23.352;2023-09-12T02:55:21;4.75;;;3.50;;
41077;SDS011;26823;42.662;23.352;2023-09-12T02:57:47;6.93;;;3.50;;
41077;SDS011;26823;42.662;23.352;2023-09-12T03:00:12;5.70;;;3.35;;
41077;SDS011;26823;42.662;23.352;2023-09-12T03:02:38;4.47;;;3.17;;
41077;SDS011;26823;42.662;23.352;2023-09-12T03:05:04;5.35;;;3.63;;
41077;SDS011;26823;42.662;23.352;2023-09-12T03:07:29;5.10;;;3.47;;
41077;SDS011;26823;42.662;23.352;2023-09-12T03:09:55;7.05;;;3.70;;
41077;SDS011;26823;42.662;23.352;2023-09-12T03:12:20;12.40;;;4.32;;
41077;SDS011;26823;42.662;23.352;2023-09-12T03:14:46;6.05;;;3.80;;
41077;SDS011;26823;42.662;23.352;2023-09-12T03:17:11;4.82;;;3.95;;
41077;SDS011;26823;42.662;23.352;2023-09-12T03:19:37;6.68;;;3.10;;
41077;SDS011;26823;42.662;23.352;2023-09-12T03:22:02;6.90;;;3.60;;
41077;SDS011;26823;42.662;23.352;2023-09-12T03:24:28;7.45;;;3.95;;
41077;SDS011;26823;42.662;23.352;2023-09-12T03:26:54;7.45;;;3.65;;
41077;SDS011;26823;42.662;23.352;2023-09-12T03:29:19;6.30;;;4.50;;
41077;SDS011;26823;42.662;23.352;2023-09-12T03:31:44;7.30;;;3.92;;
41077;SDS011;26823;42.662;23.352;2023-09-12T03:34:10;6.45;;;3.70;;
41077;SDS011;26823;42.662;23.352;2023-09-12T03:36:35;5.63;;;3.67;;
41077;SDS011;26823;42.662;23.352;2023-09-12T03:39:01;9.15;;;3.90;;
41077;SDS011;26823;42.662;23.352;2023-09-12T03:41:34;5.80;;;3.65;;
41077;SDS011;26823;42.662;23.352;2023-09-12T03:43:59;6.25;;;3.88;;
41077;SDS011;26823;42.662;23.352;2023-09-12T03:46:25;9.80;;;4.65;;
41077;SDS011;26823;42.662;23.352;2023-09-12T03:48:50;7.60;;;4.28;;
41077;SDS011;26823;42.662;23.352;2023-09-12T03:51:16;7.50;;;4.45;;
41077;SDS011;26823;42.662;23.352;2023-09-12T03:53:41;7.43;;;3.90;;
41077;SDS011;26823;42.662;23.352;2023-09-12T03:56:07;4.97;;;3.70;;
41077;SDS011;26823;42.662;23.352;2023-09-12T03:58:35;6.95;;;4.32;;
41077;SDS011;26823;42.662;23.352;2023-09-12T04:01:00;5.82;;;4.55;;
41077;SDS011;26823;42.662;23.352;2023-09-12T04:03:25;9.85;;;4.35;;
41077;SDS011;26823;42.662;23.352;2023-09-12T04:05:51;10.95;;;5.30;;
41077;SDS011;26823;42.662;23.352;2023-09-12T04:08:16;14.77;;;4.82;;
41077;SDS011;26823;42.662;23.352;2023-09-12T04:10:42;8.88;;;4.65;;
41077;SDS011;26823;42.662;23.352;2023-09-12T04:13:08;7.57;;;4.43;;
41077;SDS011;26823;42.662;23.352;2023-09-12T04:15:33;10.23;;;4.65;;
41077;SDS011;26823;42.662;23.352;2023-09-12T04:17:59;9.45;;;5.30;;
41077;SDS011;26823;42.662;23.352;2023-09-12T04:20:24;7.60;;;4.57;;
41077;SDS011;26823;42.662;23.352;2023-09-12T04:22:50;7.15;;;4.97;;
41077;SDS011;26823;42.662;23.352;2023-09-12T04:25:15;11.38;;;5.10;;
41077;SDS011;26823;42.662;23.352;2023-09-12T04:27:41;11.88;;;5.35;;
41077;SDS011;26823;42.662;23.352;2023-09-12T04:30:07;9.27;;;4.45;;
41077;SDS011;26823;42.662;23.352;2023-09-12T04:32:33;10.45;;;5.82;;
41077;SDS011;26823;42.662;23.352;2023-09-12T04:34:59;11.02;;;5.07;;
41077;SDS011;26823;42.662;23.352;2023-09-12T04:37:25;8.00;;;5.45;;
41077;SDS011;26823;42.662;23.352;2023-09-12T04:39:50;10.80;;;5.32;;
41077;SDS011;26823;42.662;23.352;2023-09-12T04:42:16;8.80;;;5.20;;
41077;SDS011;26823;42.662;23.352;2023-09-12T04:44:41;12.70;;;5.50;;
41077;SDS011;26823;42.662;23.352;2023-09-12T04:47:07;9.05;;;5.43;;
41077;SDS011;26823;42.662;23.352;2023-09-12T04:49:33;8.02;;;4.10;;
41077;SDS011;26823;42.662;23.352;2023-09-12T04:51:58;12.98;;;4.70;;
41077;SDS011;26823;42.662;23.352;2023-09-12T04:54:24;9.00;;;5.43;;
41077;SDS011;26823;42.662;23.352;2023-09-12T04:56:49;8.13;;;4.35;;
41077;SDS011;26823;42.662;23.352;2023-09-12T04:59:14;5.82;;;4.20;;
41077;SDS011;26823;42.662;23.352;2023-09-12T05:01:40;16.65;;;4.25;;
41077;SDS011;26823;42.662;23.352;2023-09-12T05:04:05;8.32;;;4.55;;
41077;SDS011;26823;42.662;23.352;2023-09-12T05:06:31;6.43;;;4.30;;
41077;SDS011;26823;42.662;23.352;2023-09-12T05:08:56;6.18;;;4.22;;
41077;SDS011;26823;42.662;23.352;2023-09-12T05:11:22;7.57;;;3.90;;
41077;SDS011;26823;42.662;23.352;2023-09-12T05:13:51;7.43;;;3.63;;
41077;SDS011;26823;42.662;23.352;2023-09-12T05:16:16;8.38;;;3.60;;
41077;SDS011;26823;42.662;23.352;2023-09-12T05:18:42;7.20;;;4.15;;
41077;SDS011;26823;42.662;23.352;2023-09-12T05:21:07;7.38;;;3.95;;
41077;SDS011;26823;42.662;23.352;2023-09-12T05:23:33;6.60;;;4.35;;
41077;SDS011;26823;42.662;23.352;2023-09-12T05:25:58;6.90;;;4.07;;
41077;SDS011;26823;42.662;23.352;2023-09-12T05:28:24;10.57;;;4.00;;
41077;SDS011;26823;42.662;23.352;2023-09-12T05:30:49;6.40;;;4.00;;
41077;SDS011;26823;42.662;23.352;2023-09-12T05:33:15;9.20;;;4.07;;
41077;SDS011;26823;42.662;23.352;2023-09-12T05:35:40;8.32;;;4.15;;
41077;SDS011;26823;42.662;23.352;2023-09-12T05:38:05;6.90;;;4.40;;
41077;SDS011;26823;42.662;23.352;2023-09-12T05:40:31;6.60;;;4.45;;
41077;SDS011;26823;42.662;23.352;2023-09-12T05:42:56;7.47;;;4.57;;
41077;SDS011;26823;42.662;23.352;2023-09-12T05:45:22;11.35;;;4.00;;
41077;SDS011;26823;42.662;23.352;2023-09-12T05:47:47;11.48;;;4.40;;
41077;SDS011;26823;42.662;23.352;2023-09-12T05:50:13;7.45;;;4.32;;
41077;SDS011;26823;42.662;23.352;2023-09-12T05:52:38;5.75;;;4.13;;
41077;SDS011;26823;42.662;23.352;2023-09-12T05:55:04;10.40;;;4.38;;
41077;SDS011;26823;42.662;23.352;2023-09-12T05:57:30;9.95;;;4.93;;
41077;SDS011;26823;42.662;23.352;2023-09-12T05:59:58;8.00;;;4.70;;
41077;SDS011;26823;42.662;23.352;2023-09-12T06:02:25;7.13;;;4.88;;
41077;SDS011;26823;42.662;23.352;2023-09-12T06:04:50;11.40;;;4.93;;
41077;SDS011;26823;42.662;23.352;2023-09-12T06:07:16;10.82;;;5.38;;
41077;SDS011;26823;42.662;23.352;2023-09-12T06:09:41;6.97;;;4.78;;
41077;SDS011;26823;42.662;23.352;2023-09-12T06:12:07;8.13;;;4.70;;
41077;SDS011;26823;42.662;23.352;2023-09-12T06:14:32;9.68;;;4.50;;
41077;SDS011;26823;42.662;23.352;2023-09-12T06:16:58;12.52;;;5.57;;
41077;SDS011;26823;42.662;23.352;2023-09-12T06:19:23;7.68;;;5.47;;
41077;SDS011;26823;42.662;23.352;2023-09-12T06:21:49;8.18;;;5.07;;
41077;SDS011;26823;42.662;23.352;2023-09-12T06:26:47;6.22;;;3.65;;
41077;SDS011;26823;42.662;23.352;2023-09-12T06:29:13;9.80;;;4.03;;
41077;SDS011;26823;42.662;23.352;2023-09-12T06:31:38;5.55;;;4.03;;
41077;SDS011;26823;42.662;23.352;2023-09-12T06:34:06;9.07;;;3.45;;
41077;SDS011;26823;42.662;23.352;2023-09-12T06:36:32;9.70;;;3.30;;
41077;SDS011;26823;42.662;23.352;2023-09-12T06:38:57;10.98;;;3.65;;
41077;SDS011;26823;42.662;23.352;2023-09-12T06:41:24;9.20;;;4.20;;
41077;SDS011;26823;42.662;23.352;2023-09-12T06:43:50;7.50;;;3.25;;
41077;SDS011;26823;42.662;23.352;2023-09-12T06:46:16;8.70;;;3.30;;
41077;SDS011;26823;42.662;23.352;2023-09-12T06:48:45;7.65;;;3.33;;
41077;SDS011;26823;42.662;23.352;2023-09-12T06:51:11;6.05;;;4.00;;
41077;SDS011;26823;42.662;23.352;2023-09-12T06:53:36;5.45;;;3.25;;
41077;SDS011;26823;42.662;23.352;2023-09-12T06:56:02;4.20;;;3.30;;
41077;SDS011;26823;42.662;23.352;2023-09-12T06:58:28;5.25;;;3.30;;
41077;SDS011;26823;42.662;23.352;2023-09-12T07:00:54;5.43;;;3.50;;
41077;SDS011;26823;42.662;23.352;2023-09-12T07:03:19;6.32;;;3.45;;
41077;SDS011;26823;42.662;23.352;2023-09-12T07:05:44;3.78;;;3.20;;
41077;SDS011;26823;42.662;23.352;2023-09-12T07:08:10;5.68;;;3.35;;
41077;SDS011;26823;42.662;23.352;2023-09-12T07:10:36;5.40;;;3.40;;
41077;SDS011;26823;42.662;23.352;2023-09-12T07:13:02;5.32;;;4.22;;
41077;SDS011;26823;42.662;23.352;2023-09-12T07:15:27;12.52;;;6.38;;
41077;SDS011;26823;42.662;23.352;2023-09-12T07:17:53;13.82;;;8.93;;
41077;SDS011;26823;42.662;23.352;2023-09-12T07:20:18;9.38;;;5.38;;
41077;SDS011;26823;42.662;23.352;2023-09-12T07:22:45;7.72;;;4.00;;
41077;SDS011;26823;42.662;23.352;2023-09-12T07:25:12;7.03;;;3.17;;
41077;SDS011;26823;42.662;23.352;2023-09-12T07:27:38;6.30;;;3.05;;
41077;SDS011;26823;42.662;23.352;2023-09-12T07:30:05;6.45;;;3.78;;
41077;SDS011;26823;42.662;23.352;2023-09-12T07:32:31;7.57;;;3.67;;
41077;SDS011;26823;42.662;23.352;2023-09-12T07:34:56;4.63;;;3.13;;
41077;SDS011;26823;42.662;23.352;2023-09-12T07:37:21;7.18;;;3.08;;
41077;SDS011;26823;42.662;23.352;2023-09-12T07:39:47;7.60;;;3.80;;
41077;SDS011;26823;42.662;23.352;2023-09-12T07:42:21;3.83;;;2.83;;
41077;SDS011;26823;42.662;23.352;2023-09-12T07:44:47;6.55;;;3.08;;
41077;SDS011;26823;42.662;23.352;2023-09-12T07:47:13;8.77;;;3.60;;
41077;SDS011;26823;42.662;23.352;2023-09-12T07:49:39;7.15;;;3.13;;
41077;SDS011;26823;42.662;23.352;2023-09-12T07:52:05;6.97;;;3.50;;
41077;SDS011;26823;42.662;23.352;2023-09-12T07:54:31;8.55;;;3.58;;
41077;SDS011;26823;42.662;23.352;2023-09-12T07:56:56;9.27;;;3.58;;
41077;SDS011;26823;42.662;23.352;2023-09-12T07:59:21;8.88;;;3.85;;
41077;SDS011;26823;42.662;23.352;2023-09-12T08:01:47;7.05;;;4.85;;
41077;SDS011;26823;42.662;23.352;2023-09-12T08:04:13;6.03;;;3.25;;
41077;SDS011;26823;42.662;23.352;2023-09-12T08:06:39;4.50;;;3.53;;
41077;SDS011;26823;42.662;23.352;2023-09-12T08:09:06;4.72;;;3.08;;
41077;SDS011;26823;42.662;23.352;2023-09-12T08:11:31;7.72;;;3.78;;
41077;SDS011;26823;42.662;23.352;2023-09-12T08:13:57;5.22;;;4.03;;
41077;SDS011;26823;42.662;23.352;2023-09-12T08:16:22;12.90;;;3.63;;
41077;SDS011;26823;42.662;23.352;2023-09-12T08:18:47;7.25;;;3.65;;
41077;SDS011;26823;42.662;23.352;2023-09-12T08:21:13;11.63;;;5.13;;
41077;SDS011;26823;42.662;23.352;2023-09-12T08:23:39;7.20;;;3.35;;
41077;SDS011;26823;42.662;23.352;2023-09-12T08:26:04;6.20;;;3.08;;
41077;SDS011;26823;42.662;23.352;2023-09-12T08:28:29;9.02;;;3.78;;
41077;SDS011;26823;42.662;23.352;2023-09-12T08:30:55;5.32;;;3.10;;
41077;SDS011;26823;42.662;23.352;2023-09-12T08:33:20;6.85;;;2.80;;
41077;SDS011;26823;42.662;23.352;2023-09-12T08:35:45;5.43;;;2.85;;
41077;SDS011;26823;42.662;23.352;2023-09-12T08:38:11;5.95;;;2.60;;
41077;SDS011;26823;42.662;23.352;2023-09-12T08:40:37;5.00;;;2.85;;
41077;SDS011;26823;42.662;23.352;2023-09-12T08:43:02;5.05;;;2.83;;
41077;SDS011;26823;42.662;23.352;2023-09-12T08:45:29;5.88;;;3.00;;
41077;SDS011;26823;42.662;23.352;2023-09-12T08:47:55;5.00;;;2.83;;
41077;SDS011;26823;42.662;23.352;2023-09-12T08:50:25;5.75;;;3.00;;
41077;SDS011;26823;42.662;23.352;2023-09-12T08:52:53;6.38;;;3.15;;
41077;SDS011;26823;42.662;23.352;2023-09-12T08:55:19;5.40;;;3.25;;
41077;SDS011;26823;42.662;23.352;2023-09-12T08:57:45;6.90;;;3.75;;
41077;SDS011;26823;42.662;23.352;2023-09-12T09:00:15;5.88;;;2.47;;
41077;SDS011;26823;42.662;23.352;2023-09-12T09:02:41;8.20;;;3.38;;
41077;SDS011;26823;42.662;23.352;2023-09-12T09:05:08;5.45;;;2.40;;
41077;SDS011;26823;42.662;23.352;2023-09-12T09:07:38;3.72;;;2.30;;
41077;SDS011;26823;42.662;23.352;2023-09-12T09:10:05;6.78;;;2.42;;
41077;SDS011;26823;42.662;23.352;2023-09-12T09:12:32;3.50;;;2.28;;
41077;SDS011;26823;42.662;23.352;2023-09-12T09:14:59;3.88;;;2.28;;
41077;SDS011;26823;42.662;23.352;2023-09-12T09:17:44;6.65;;;2.47;;
41077;SDS011;26823;42.662;23.352;2023-09-12T09:20:09;4.43;;;2.25;;
41077;SDS011;26823;42.662;23.352;2023-09-12T09:22:35;6.65;;;2.53;;
41077;SDS011;26823;42.662;23.352;2023-09-12T09:25:10;7.28;;;2.50;;
41077;SDS011;26823;42.662;23.352;2023-09-12T09:27:37;4.80;;;2.55;;
41077;SDS011;26823;42.662;23.352;2023-09-12T09:30:02;4.63;;;2.85;;
41077;SDS011;26823;42.662;23.352;2023-09-12T09:32:28;4.88;;;2.20;;
41077;SDS011;26823;42.662;23.352;2023-09-12T09:34:53;4.30;;;2.58;;
41077;SDS011;26823;42.662;23.352;2023-09-12T09:37:19;3.60;;;2.50;;
41077;SDS011;26823;42.662;23.352;2023-09-12T09:39:44;4.10;;;2.70;;
41077;SDS011;26823;42.662;23.352;2023-09-12T09:42:11;4.95;;;2.70;;
41077;SDS011;26823;42.662;23.352;2023-09-12T09:44:37;5.50;;;2.38;;
41077;SDS011;26823;42.662;23.352;2023-09-12T09:47:02;5.78;;;2.33;;
41077;SDS011;26823;42.662;23.352;2023-09-12T09:49:31;6.80;;;2.15;;
41077;SDS011;26823;42.662;23.352;2023-09-12T09:51:56;9.45;;;2.83;;
41077;SDS011;26823;42.662;23.352;2023-09-12T09:54:24;7.28;;;2.58;;
41077;SDS011;26823;42.662;23.352;2023-09-12T09:56:53;13.48;;;3.20;;
41077;SDS011;26823;42.662;23.352;2023-09-12T09:59:25;11.05;;;2.75;;
41077;SDS011;26823;42.662;23.352;2023-09-12T10:01:55;3.58;;;2.20;;
41077;SDS011;26823;42.662;23.352;2023-09-12T10:04:23;4.88;;;2.53;;
41077;SDS011;26823;42.662;23.352;2023-09-12T10:06:51;4.20;;;2.40;;
41077;SDS011;26823;42.662;23.352;2023-09-12T10:09:19;4.25;;;2.50;;
41077;SDS011;26823;42.662;23.352;2023-09-12T10:11:48;4.25;;;2.42;;
41077;SDS011;26823;42.662;23.352;2023-09-12T10:14:17;3.97;;;2.90;;
41077;SDS011;26823;42.662;23.352;2023-09-12T10:16:48;4.80;;;2.28;;
41077;SDS011;26823;42.662;23.352;2023-09-12T10:19:17;6.47;;;2.50;;
41077;SDS011;26823;42.662;23.352;2023-09-12T10:24:32;4.80;;;2.65;;
41077;SDS011;26823;42.662;23.352;2023-09-12T10:27:04;3.58;;;2.20;;
41077;SDS011;26823;42.662;23.352;2023-09-12T10:29:31;4.65;;;2.10;;
41077;SDS011;26823;42.662;23.352;2023-09-12T10:31:56;5.05;;;2.58;;
41077;SDS011;26823;42.662;23.352;2023-09-12T10:34:22;6.57;;;2.47;;
41077;SDS011;26823;42.662;23.352;2023-09-12T10:36:50;3.53;;;2.30;;
41077;SDS011;26823;42.662;23.352;2023-09-12T10:39:17;8.13;;;2.30;;
41077;SDS011;26823;42.662;23.352;2023-09-12T10:41:44;7.13;;;2.53;;
41077;SDS011;26823;42.662;23.352;2023-09-12T10:44:14;6.57;;;2.33;;
41077;SDS011;26823;42.662;23.352;2023-09-12T10:46:41;8.27;;;2.60;;
41077;SDS011;26823;42.662;23.352;2023-09-12T10:49:08;4.10;;;2.22;;
41077;SDS011;26823;42.662;23.352;2023-09-12T10:51:39;4.88;;;1.92;;
41077;SDS011;26823;42.662;23.352;2023-09-12T10:54:05;4.85;;;2.30;;
41077;SDS011;26823;42.662;23.352;2023-09-12T10:56:32;2.72;;;2.22;;
41077;SDS011;26823;42.662;23.352;2023-09-12T11:01:30;6.70;;;2.47;;
41077;SDS011;26823;42.662;23.352;2023-09-12T11:03:56;7.82;;;2.50;;
41077;SDS011;26823;42.662;23.352;2023-09-12T11:06:22;5.75;;;2.55;;
41077;SDS011;26823;42.662;23.352;2023-09-12T11:11:49;8.38;;;2.58;;
41077;SDS011;26823;42.662;23.352;2023-09-12T11:14:29;7.40;;;2.67;;
41077;SDS011;26823;42.662;23.352;2023-09-12T11:24:47;8.25;;;2.20;;
41077;SDS011;26823;42.662;23.352;2023-09-12T11:27:13;2.58;;;1.92;;
41077;SDS011;26823;42.662;23.352;2023-09-12T11:29:39;3.97;;;2.08;;
41077;SDS011;26823;42.662;23.352;2023-09-12T11:32:05;6.88;;;2.60;;
41077;SDS011;26823;42.662;23.352;2023-09-12T11:34:40;5.97;;;2.67;;
41077;SDS011;26823;42.662;23.352;2023-09-12T11:37:07;4.97;;;2.42;;
41077;SDS011;26823;42.662;23.352;2023-09-12T11:39:33;4.07;;;2.60;;
41077;SDS011;26823;42.662;23.352;2023-09-12T11:42:00;4.85;;;1.95;;
41077;SDS011;26823;42.662;23.352;2023-09-12T11:47:00;5.13;;;2.28;;
41077;SDS011;26823;42.662;23.352;2023-09-12T11:49:38;5.75;;;1.90;;
41077;SDS011;26823;42.662;23.352;2023-09-12T11:52:14;2.77;;;2.53;;
41077;SDS011;26823;42.662;23.352;2023-09-12T11:54:45;5.10;;;2.22;;
41077;SDS011;26823;42.662;23.352;2023-09-12T11:57:11;7.70;;;2.25;;
41077;SDS011;26823;42.662;23.352;2023-09-12T11:59:39;5.63;;;2.55;;
41077;SDS011;26823;42.662;23.352;2023-09-12T12:02:06;5.93;;;3.67;;
41077;SDS011;26823;42.662;23.352;2023-09-12T12:04:32;7.75;;;2.90;;
41077;SDS011;26823;42.662;23.352;2023-09-12T12:06:59;3.97;;;2.50;;
41077;SDS011;26823;42.662;23.352;2023-09-12T12:09:26;5.30;;;2.33;;
41077;SDS011;26823;42.662;23.352;2023-09-12T12:11:52;6.75;;;2.70;;
41077;SDS011;26823;42.662;23.352;2023-09-12T12:14:17;10.18;;;2.42;;
41077;SDS011;26823;42.662;23.352;2023-09-12T12:16:44;6.38;;;2.40;;
41077;SDS011;26823;42.662;23.352;2023-09-12T12:19:12;9.50;;;2.42;;
41077;SDS011;26823;42.662;23.352;2023-09-12T12:21:41;3.88;;;2.50;;
41077;SDS011;26823;42.662;23.352;2023-09-12T12:24:09;7.00;;;2.78;;
41077;SDS011;26823;42.662;23.352;2023-09-12T12:26:37;4.47;;;2.40;;
41077;SDS011;26823;42.662;23.352;2023-09-12T12:29:04;7.10;;;2.50;;
41077;SDS011;26823;42.662;23.352;2023-09-12T12:31:29;5.40;;;2.58;;
41077;SDS011;26823;42.662;23.352;2023-09-12T12:33:56;5.75;;;2.55;;
41077;SDS011;26823;42.662;23.352;2023-09-12T12:36:22;5.00;;;2.40;;
41077;SDS011;26823;42.662;23.352;2023-09-12T12:38:48;6.55;;;2.58;;
41077;SDS011;26823;42.662;23.352;2023-09-12T12:41:22;3.40;;;2.28;;
41077;SDS011;26823;42.662;23.352;2023-09-12T12:43:49;3.47;;;2.20;;
41077;SDS011;26823;42.662;23.352;2023-09-12T12:46:19;5.53;;;2.47;;
41077;SDS011;26823;42.662;23.352;2023-09-12T12:48:46;6.65;;;2.47;;
41077;SDS011;26823;42.662;23.352;2023-09-12T12:53:52;4.40;;;2.42;;
41077;SDS011;26823;42.662;23.352;2023-09-12T12:56:22;8.75;;;3.25;;
41077;SDS011;26823;42.662;23.352;2023-09-12T12:58:49;6.03;;;2.38;;
41077;SDS011;26823;42.662;23.352;2023-09-12T13:01:23;6.38;;;2.70;;
41077;SDS011;26823;42.662;23.352;2023-09-12T13:03:49;4.82;;;2.42;;
41077;SDS011;26823;42.662;23.352;2023-09-12T13:06:15;5.68;;;2.78;;
41077;SDS011;26823;42.662;23.352;2023-09-12T13:08:42;6.75;;;2.83;;
41077;SDS011;26823;42.662;23.352;2023-09-12T13:11:12;4.65;;;2.78;;
41077;SDS011;26823;42.662;23.352;2023-09-12T13:13:39;7.15;;;2.67;;
41077;SDS011;26823;42.662;23.352;2023-09-12T13:16:06;6.75;;;2.80;;
41077;SDS011;26823;42.662;23.352;2023-09-12T13:18:34;5.95;;;3.58;;
41077;SDS011;26823;42.662;23.352;2023-09-12T13:21:00;4.15;;;2.90;;
41077;SDS011;26823;42.662;23.352;2023-09-12T13:23:26;9.85;;;2.88;;
41077;SDS011;26823;42.662;23.352;2023-09-12T13:25:52;5.65;;;3.00;;
41077;SDS011;26823;42.662;23.352;2023-09-12T13:28:18;4.50;;;2.58;;
41077;SDS011;26823;42.662;23.352;2023-09-12T13:30:44;5.38;;;2.78;;
41077;SDS011;26823;42.662;23.352;2023-09-12T13:33:10;6.20;;;2.67;;
41077;SDS011;26823;42.662;23.352;2023-09-12T13:35:36;3.10;;;2.72;;
41077;SDS011;26823;42.662;23.352;2023-09-12T13:38:01;4.28;;;2.53;;
41077;SDS011;26823;42.662;23.352;2023-09-12T13:40:28;6.93;;;2.92;;
41077;SDS011;26823;42.662;23.352;2023-09-12T13:42:54;4.38;;;3.15;;
41077;SDS011;26823;42.662;23.352;2023-09-12T13:45:19;5.35;;;2.53;;
41077;SDS011;26823;42.662;23.352;2023-09-12T13:47:45;5.25;;;2.55;;
41077;SDS011;26823;42.662;23.352;2023-09-12T13:50:10;11.45;;;2.85;;
41077;SDS011;26823;42.662;23.352;2023-09-12T13:52:35;3.17;;;2.47;;
41077;SDS011;26823;42.662;23.352;2023-09-12T13:55:01;4.72;;;2.30;;
41077;SDS011;26823;42.662;23.352;2023-09-12T13:57:28;9.70;;;2.80;;
41077;SDS011;26823;42.662;23.352;2023-09-12T13:59:54;6.45;;;2.53;;
41077;SDS011;26823;42.662;23.352;2023-09-12T14:02:19;4.00;;;2.55;;
41077;SDS011;26823;42.662;23.352;2023-09-12T14:04:44;9.30;;;2.63;;
41077;SDS011;26823;42.662;23.352;2023-09-12T14:07:10;7.10;;;2.33;;
41077;SDS011;26823;42.662;23.352;2023-09-12T14:09:36;6.85;;;2.55;;
41077;SDS011;26823;42.662;23.352;2023-09-12T14:12:01;6.60;;;2.70;;
41077;SDS011;26823;42.662;23.352;2023-09-12T14:14:28;6.70;;;2.70;;
41077;SDS011;26823;42.662;23.352;2023-09-12T14:16:53;4.70;;;2.40;;
41077;SDS011;26823;42.662;23.352;2023-09-12T14:19:19;7.13;;;2.38;;
41077;SDS011;26823;42.662;23.352;2023-09-12T14:21:44;3.10;;;2.60;;
41077;SDS011;26823;42.662;23.352;2023-09-12T14:24:09;5.88;;;2.40;;
41077;SDS011;26823;42.662;23.352;2023-09-12T14:26:35;4.90;;;2.40;;
41077;SDS011;26823;42.662;23.352;2023-09-12T14:29:00;6.68;;;2.67;;
41077;SDS011;26823;42.662;23.352;2023-09-12T14:31:25;3.05;;;2.28;;
41077;SDS011;26823;42.662;23.352;2023-09-12T14:33:51;6.32;;;2.90;;
41077;SDS011;26823;42.662;23.352;2023-09-12T14:36:17;5.95;;;2.42;;
41077;SDS011;26823;42.662;23.352;2023-09-12T14:38:43;4.93;;;2.47;;
41077;SDS011;26823;42.662;23.352;2023-09-12T14:41:11;4.18;;;2.78;;
41077;SDS011;26823;42.662;23.352;2023-09-12T14:43:37;7.13;;;2.97;;
41077;SDS011;26823;42.662;23.352;2023-09-12T14:46:02;5.43;;;2.38;;
41077;SDS011;26823;42.662;23.352;2023-09-12T14:48:29;5.30;;;3.17;;
41077;SDS011;26823;42.662;23.352;2023-09-12T14:50:56;5.78;;;2.45;;
41077;SDS011;26823;42.662;23.352;2023-09-12T14:53:21;3.30;;;2.20;;
41077;SDS011;26823;42.662;23.352;2023-09-12T14:55:47;5.85;;;2.40;;
41077;SDS011;26823;42.662;23.352;2023-09-12T14:58:12;7.78;;;2.40;;
41077;SDS011;26823;42.662;23.352;2023-09-12T15:00:37;5.88;;;2.85;;